sensor_id;sensor_type;location;lat;lon;timestamp;P1;durP1;ratioP1;P2;durP2;ratioP2
15498;SDS011;7851;52.260;6.030;2023-08-31T00:00:53;2.4;;;2;;
15498;SDS011;7851;52.260;6.030;2023-08-31T00:01:34;1.7;;;1.6;;
15498;SDS011;7851;52.260;6.030;2023-08-31T00:02:33;1.9;;;1.8;;
15498;SDS011;7851;52.260;6.030;2023-08-31T00:03:34;1.7;;;1.6;;
15498;SDS011;7851;52.260;6.030;2023-08-31T00:04:34;1.8;;;1.7;;
15498;SDS011;7851;52.260;6.030;2023-08-31T00:05:36;2.2;;;1.8;;
15498;SDS011;7851;52.260;6.030;2023-08-31T00:06:34;1.9;;;1.8;;
15498;SDS011;7851;52.260;6.030;2023-08-31T00:07:34;1.7;;;1.6;;
15498;SDS011;7851;52.260;6.030;2023-08-31T00:08:34;2.5;;;1.7;;
15498;SDS011;7851;52.260;6.030;2023-08-31T00:09:34;1.7;;;1.6;;
15498;SDS011;7851;52.260;6.030;2023-08-31T00:10:34;2.8;;;1.5;;
15498;SDS011;7851;52.260;6.030;2023-08-31T00:11:33;1.7;;;1.6;;
15498;SDS011;7851;52.260;6.030;2023-08-31T00:12:33;2.3;;;1.5;;
15498;SDS011;7851;52.260;6.030;2023-08-31T00:13:34;1.6;;;1.5;;
15498;SDS011;7851;52.260;6.030;2023-08-31T00:14:34;1.4;;;1.4;;
15498;SDS011;7851;52.260;6.030;2023-08-31T00:15:34;1.8;;;1.7;;
15498;SDS011;7851;52.260;6.030;2023-08-31T00:16:34;2;;;1.8;;
15498;SDS011;7851;52.260;6.030;2023-08-31T00:17:34;1.7;;;1.6;;
15498;SDS011;7851;52.260;6.030;2023-08-31T00:18:34;2.1;;;1.8;;
15498;SDS011;7851;52.260;6.030;2023-08-31T00:19:34;2;;;1.9;;
15498;SDS011;7851;52.260;6.030;2023-08-31T00:20:33;1.6;;;1.5;;
15498;SDS011;7851;52.260;6.030;2023-08-31T00:21:34;1.8;;;1.4;;
15498;SDS011;7851;52.260;6.030;2023-08-31T00:22:34;2;;;1.9;;
15498;SDS011;7851;52.260;6.030;2023-08-31T00:23:33;2.1;;;1.7;;
15498;SDS011;7851;52.260;6.030;2023-08-31T00:24:34;2.5;;;1.6;;
15498;SDS011;7851;52.260;6.030;2023-08-31T00:25:33;1.8;;;1.7;;
15498;SDS011;7851;52.260;6.030;2023-08-31T00:26:33;1.9;;;1.8;;
15498;SDS011;7851;52.260;6.030;2023-08-31T00:27:33;1.4;;;1.4;;
15498;SDS011;7851;52.260;6.030;2023-08-31T00:28:34;1.9;;;1.8;;
15498;SDS011;7851;52.260;6.030;2023-08-31T00:29:34;1.5;;;1.4;;
15498;SDS011;7851;52.260;6.030;2023-08-31T00:30:34;2;;;1.6;;
15498;SDS011;7851;52.260;6.030;2023-08-31T00:31:34;1.5;;;1.4;;
15498;SDS011;7851;52.260;6.030;2023-08-31T00:32:34;1.8;;;1.7;;
15498;SDS011;7851;52.260;6.030;2023-08-31T00:33:34;2.7;;;1.6;;
15498;SDS011;7851;52.260;6.030;2023-08-31T00:34:34;1.7;;;1.6;;
15498;SDS011;7851;52.260;6.030;2023-08-31T00:35:34;1.6;;;1.6;;
15498;SDS011;7851;52.260;6.030;2023-08-31T00:36:33;2;;;1.9;;
15498;SDS011;7851;52.260;6.030;2023-08-31T00:37:34;2.3;;;1.8;;
15498;SDS011;7851;52.260;6.030;2023-08-31T00:38:34;1.4;;;1.4;;
15498;SDS011;7851;52.260;6.030;2023-08-31T00:39:34;2.7;;;1.6;;
15498;SDS011;7851;52.260;6.030;2023-08-31T00:40:37;1.8;;;1.7;;
15498;SDS011;7851;52.260;6.030;2023-08-31T00:41:33;1.8;;;1.7;;
15498;SDS011;7851;52.260;6.030;2023-08-31T00:42:33;1.7;;;1.6;;
15498;SDS011;7851;52.260;6.030;2023-08-31T00:43:34;2.2;;;2;;
15498;SDS011;7851;52.260;6.030;2023-08-31T00:44:34;1.9;;;1.8;;
15498;SDS011;7851;52.260;6.030;2023-08-31T00:45:34;1.7;;;1.6;;
15498;SDS011;7851;52.260;6.030;2023-08-31T00:46:34;1.7;;;1.6;;
15498;SDS011;7851;52.260;6.030;2023-08-31T00:47:34;1.8;;;1.7;;
15498;SDS011;7851;52.260;6.030;2023-08-31T00:48:34;1.7;;;1.6;;
15498;SDS011;7851;52.260;6.030;2023-08-31T00:49:33;7;;;2;;
15498;SDS011;7851;52.260;6.030;2023-08-31T00:50:34;1.9;;;1.8;;
15498;SDS011;7851;52.260;6.030;2023-08-31T00:51:34;2;;;1.9;;
15498;SDS011;7851;52.260;6.030;2023-08-31T00:52:34;2;;;1.9;;
15498;SDS011;7851;52.260;6.030;2023-08-31T00:53:34;2;;;1.9;;
15498;SDS011;7851;52.260;6.030;2023-08-31T00:54:33;2;;;1.9;;
15498;SDS011;7851;52.260;6.030;2023-08-31T00:55:34;2.4;;;2;;
15498;SDS011;7851;52.260;6.030;2023-08-31T00:56:34;2;;;1.9;;
15498;SDS011;7851;52.260;6.030;2023-08-31T00:57:34;1.8;;;1.7;;
15498;SDS011;7851;52.260;6.030;2023-08-31T00:58:34;2.4;;;1.7;;
15498;SDS011;7851;52.260;6.030;2023-08-31T00:59:34;2.7;;;2.2;;
15498;SDS011;7851;52.260;6.030;2023-08-31T01:00:38;1.8;;;1.7;;
15498;SDS011;7851;52.260;6.030;2023-08-31T01:01:35;2;;;1.9;;
15498;SDS011;7851;52.260;6.030;2023-08-31T01:02:34;4.8;;;2.7;;
15498;SDS011;7851;52.260;6.030;2023-08-31T01:03:35;2.6;;;2.4;;
15498;SDS011;7851;52.260;6.030;2023-08-31T01:04:38;3.7;;;2.3;;
15498;SDS011;7851;52.260;6.030;2023-08-31T01:05:35;3.1;;;2.3;;
15498;SDS011;7851;52.260;6.030;2023-08-31T01:06:36;2.4;;;2.3;;
15498;SDS011;7851;52.260;6.030;2023-08-31T01:07:34;2.3;;;1.9;;
15498;SDS011;7851;52.260;6.030;2023-08-31T01:08:40;2.6;;;2.4;;
15498;SDS011;7851;52.260;6.030;2023-08-31T01:09:34;3;;;1.9;;
15498;SDS011;7851;52.260;6.030;2023-08-31T01:10:35;2.4;;;2.2;;
15498;SDS011;7851;52.260;6.030;2023-08-31T01:11:34;2.7;;;2.5;;
15498;SDS011;7851;52.260;6.030;2023-08-31T01:12:34;3;;;2.8;;
15498;SDS011;7851;52.260;6.030;2023-08-31T01:13:34;3.6;;;2.6;;
15498;SDS011;7851;52.260;6.030;2023-08-31T01:14:34;2.1;;;2;;
15498;SDS011;7851;52.260;6.030;2023-08-31T01:15:33;3.2;;;2.3;;
15498;SDS011;7851;52.260;6.030;2023-08-31T01:16:34;5.9;;;2.7;;
15498;SDS011;7851;52.260;6.030;2023-08-31T01:17:35;3;;;2.7;;
15498;SDS011;7851;52.260;6.030;2023-08-31T01:18:33;2.8;;;2.3;;
15498;SDS011;7851;52.260;6.030;2023-08-31T01:19:39;2.7;;;2.6;;
15498;SDS011;7851;52.260;6.030;2023-08-31T01:20:34;3.8;;;2.7;;
15498;SDS011;7851;52.260;6.030;2023-08-31T01:21:33;3;;;2.8;;
15498;SDS011;7851;52.260;6.030;2023-08-31T01:22:38;3.3;;;3.1;;
15498;SDS011;7851;52.260;6.030;2023-08-31T01:23:41;3.3;;;2.4;;
15498;SDS011;7851;52.260;6.030;2023-08-31T01:24:34;2.9;;;2.7;;
15498;SDS011;7851;52.260;6.030;2023-08-31T01:25:33;3.3;;;3;;
15498;SDS011;7851;52.260;6.030;2023-08-31T01:26:34;3.3;;;3;;
15498;SDS011;7851;52.260;6.030;2023-08-31T01:27:34;3.4;;;3.1;;
15498;SDS011;7851;52.260;6.030;2023-08-31T01:28:33;4;;;3.7;;
15498;SDS011;7851;52.260;6.030;2023-08-31T01:29:33;5;;;3.3;;
15498;SDS011;7851;52.260;6.030;2023-08-31T01:30:33;3.8;;;3.4;;
15498;SDS011;7851;52.260;6.030;2023-08-31T01:31:40;3.6;;;3.3;;
15498;SDS011;7851;52.260;6.030;2023-08-31T01:32:34;3.7;;;3.5;;
15498;SDS011;7851;52.260;6.030;2023-08-31T01:33:33;4.5;;;3.8;;
15498;SDS011;7851;52.260;6.030;2023-08-31T01:34:34;4.4;;;3.9;;
15498;SDS011;7851;52.260;6.030;2023-08-31T01:35:36;4.1;;;3.8;;
15498;SDS011;7851;52.260;6.030;2023-08-31T01:36:34;3.7;;;3.4;;
15498;SDS011;7851;52.260;6.030;2023-08-31T01:37:36;3.4;;;3.2;;
15498;SDS011;7851;52.260;6.030;2023-08-31T01:38:33;4;;;3.1;;
15498;SDS011;7851;52.260;6.030;2023-08-31T01:39:35;3.8;;;3.6;;
15498;SDS011;7851;52.260;6.030;2023-08-31T01:40:35;5.6;;;3.9;;
15498;SDS011;7851;52.260;6.030;2023-08-31T01:41:34;3.3;;;3.1;;
15498;SDS011;7851;52.260;6.030;2023-08-31T01:42:33;4.7;;;3.5;;
15498;SDS011;7851;52.260;6.030;2023-08-31T01:43:34;3.9;;;3.6;;
15498;SDS011;7851;52.260;6.030;2023-08-31T01:44:34;4.1;;;3.8;;
15498;SDS011;7851;52.260;6.030;2023-08-31T01:45:33;3.9;;;3.6;;
15498;SDS011;7851;52.260;6.030;2023-08-31T01:46:33;3.9;;;3.6;;
15498;SDS011;7851;52.260;6.030;2023-08-31T01:47:34;4.3;;;3.9;;
15498;SDS011;7851;52.260;6.030;2023-08-31T01:48:37;4.1;;;3.8;;
15498;SDS011;7851;52.260;6.030;2023-08-31T01:49:37;3.7;;;3.4;;
15498;SDS011;7851;52.260;6.030;2023-08-31T01:50:33;5.3;;;4;;
15498;SDS011;7851;52.260;6.030;2023-08-31T01:51:34;4;;;3.7;;
15498;SDS011;7851;52.260;6.030;2023-08-31T01:52:33;3.9;;;3.6;;
15498;SDS011;7851;52.260;6.030;2023-08-31T01:53:33;3.5;;;3.3;;
15498;SDS011;7851;52.260;6.030;2023-08-31T01:54:33;4;;;3.7;;
15498;SDS011;7851;52.260;6.030;2023-08-31T01:55:33;4.6;;;4;;
15498;SDS011;7851;52.260;6.030;2023-08-31T01:56:33;4.1;;;3.3;;
15498;SDS011;7851;52.260;6.030;2023-08-31T01:57:33;3.6;;;3.3;;
15498;SDS011;7851;52.260;6.030;2023-08-31T01:58:33;3.9;;;3.7;;
15498;SDS011;7851;52.260;6.030;2023-08-31T01:59:34;3.4;;;3.1;;
15498;SDS011;7851;52.260;6.030;2023-08-31T02:00:34;4.5;;;4.1;;
15498;SDS011;7851;52.260;6.030;2023-08-31T02:01:33;4.6;;;4.3;;
15498;SDS011;7851;52.260;6.030;2023-08-31T02:02:33;4.3;;;3.9;;
15498;SDS011;7851;52.260;6.030;2023-08-31T02:03:33;4.6;;;4.2;;
15498;SDS011;7851;52.260;6.030;2023-08-31T02:04:33;3.5;;;3.2;;
15498;SDS011;7851;52.260;6.030;2023-08-31T02:05:33;3.8;;;3.4;;
15498;SDS011;7851;52.260;6.030;2023-08-31T02:06:33;4.9;;;3.3;;
15498;SDS011;7851;52.260;6.030;2023-08-31T02:07:33;4.3;;;4;;
15498;SDS011;7851;52.260;6.030;2023-08-31T02:08:33;6.1;;;4.4;;
15498;SDS011;7851;52.260;6.030;2023-08-31T02:09:34;5;;;4.5;;
15498;SDS011;7851;52.260;6.030;2023-08-31T02:10:33;4.3;;;3.9;;
15498;SDS011;7851;52.260;6.030;2023-08-31T02:11:33;4.5;;;4.2;;
15498;SDS011;7851;52.260;6.030;2023-08-31T02:12:33;4.2;;;3.8;;
15498;SDS011;7851;52.260;6.030;2023-08-31T02:13:33;4.5;;;4.1;;
15498;SDS011;7851;52.260;6.030;2023-08-31T02:14:33;4.7;;;3.8;;
15498;SDS011;7851;52.260;6.030;2023-08-31T02:15:34;3.6;;;3.3;;
15498;SDS011;7851;52.260;6.030;2023-08-31T02:16:33;3.6;;;3.3;;
15498;SDS011;7851;52.260;6.030;2023-08-31T02:17:34;3.5;;;3.3;;
15498;SDS011;7851;52.260;6.030;2023-08-31T02:18:33;3.7;;;3.5;;
15498;SDS011;7851;52.260;6.030;2023-08-31T02:19:34;3.1;;;2.9;;
15498;SDS011;7851;52.260;6.030;2023-08-31T02:20:33;2.9;;;2.6;;
15498;SDS011;7851;52.260;6.030;2023-08-31T02:21:33;2.5;;;2.3;;
15498;SDS011;7851;52.260;6.030;2023-08-31T02:22:34;2.8;;;2.6;;
15498;SDS011;7851;52.260;6.030;2023-08-31T02:23:34;3;;;2.8;;
15498;SDS011;7851;52.260;6.030;2023-08-31T02:24:33;2.1;;;2;;
15498;SDS011;7851;52.260;6.030;2023-08-31T02:25:33;2.6;;;2.5;;
15498;SDS011;7851;52.260;6.030;2023-08-31T02:26:34;2.4;;;2.3;;
15498;SDS011;7851;52.260;6.030;2023-08-31T02:27:33;2.6;;;2.4;;
15498;SDS011;7851;52.260;6.030;2023-08-31T02:28:33;4.4;;;2.3;;
15498;SDS011;7851;52.260;6.030;2023-08-31T02:29:33;2.7;;;2.5;;
15498;SDS011;7851;52.260;6.030;2023-08-31T02:30:33;2.9;;;2.5;;
15498;SDS011;7851;52.260;6.030;2023-08-31T02:31:33;2.4;;;2.2;;
15498;SDS011;7851;52.260;6.030;2023-08-31T02:32:34;2.5;;;2.4;;
15498;SDS011;7851;52.260;6.030;2023-08-31T02:33:33;3;;;2.6;;
15498;SDS011;7851;52.260;6.030;2023-08-31T02:34:33;2.4;;;2.3;;
15498;SDS011;7851;52.260;6.030;2023-08-31T02:35:33;2.7;;;2.4;;
15498;SDS011;7851;52.260;6.030;2023-08-31T02:36:33;3.1;;;2.4;;
15498;SDS011;7851;52.260;6.030;2023-08-31T02:37:34;1.9;;;1.9;;
15498;SDS011;7851;52.260;6.030;2023-08-31T02:38:33;6;;;2.7;;
15498;SDS011;7851;52.260;6.030;2023-08-31T02:39:33;2.6;;;2.5;;
15498;SDS011;7851;52.260;6.030;2023-08-31T02:40:34;2.4;;;2.3;;
15498;SDS011;7851;52.260;6.030;2023-08-31T02:41:34;2.8;;;2.3;;
15498;SDS011;7851;52.260;6.030;2023-08-31T02:42:33;2.6;;;2.4;;
15498;SDS011;7851;52.260;6.030;2023-08-31T02:43:33;3;;;2.3;;
15498;SDS011;7851;52.260;6.030;2023-08-31T02:44:33;2.2;;;2.1;;
15498;SDS011;7851;52.260;6.030;2023-08-31T02:45:33;2.7;;;2.5;;
15498;SDS011;7851;52.260;6.030;2023-08-31T02:46:33;2.6;;;2.5;;
15498;SDS011;7851;52.260;6.030;2023-08-31T02:47:33;2.7;;;2.5;;
15498;SDS011;7851;52.260;6.030;2023-08-31T02:48:33;6.7;;;2.6;;
15498;SDS011;7851;52.260;6.030;2023-08-31T02:49:33;3.1;;;2.9;;
15498;SDS011;7851;52.260;6.030;2023-08-31T02:50:33;3.1;;;2.9;;
15498;SDS011;7851;52.260;6.030;2023-08-31T02:51:33;2.5;;;2.3;;
15498;SDS011;7851;52.260;6.030;2023-08-31T02:52:33;2.5;;;2.4;;
15498;SDS011;7851;52.260;6.030;2023-08-31T02:53:33;2.7;;;2.5;;
15498;SDS011;7851;52.260;6.030;2023-08-31T02:54:33;2.9;;;2.7;;
15498;SDS011;7851;52.260;6.030;2023-08-31T02:55:33;3.5;;;3.3;;
15498;SDS011;7851;52.260;6.030;2023-08-31T02:56:33;3.7;;;3.1;;
15498;SDS011;7851;52.260;6.030;2023-08-31T02:57:34;3.9;;;3.6;;
15498;SDS011;7851;52.260;6.030;2023-08-31T02:58:33;3.5;;;3.2;;
15498;SDS011;7851;52.260;6.030;2023-08-31T02:59:33;3.8;;;3.5;;
15498;SDS011;7851;52.260;6.030;2023-08-31T03:00:33;3.4;;;3.2;;
15498;SDS011;7851;52.260;6.030;2023-08-31T03:01:34;4.3;;;3.9;;
15498;SDS011;7851;52.260;6.030;2023-08-31T03:02:33;4;;;3.7;;
15498;SDS011;7851;52.260;6.030;2023-08-31T03:03:33;3.9;;;3.6;;
15498;SDS011;7851;52.260;6.030;2023-08-31T03:04:33;4.6;;;4.3;;
15498;SDS011;7851;52.260;6.030;2023-08-31T03:05:33;5.2;;;4.8;;
15498;SDS011;7851;52.260;6.030;2023-08-31T03:06:33;5.1;;;4.7;;
15498;SDS011;7851;52.260;6.030;2023-08-31T03:07:33;6.4;;;4;;
15498;SDS011;7851;52.260;6.030;2023-08-31T03:08:34;4.5;;;4.1;;
15498;SDS011;7851;52.260;6.030;2023-08-31T03:09:33;5.2;;;4.7;;
15498;SDS011;7851;52.260;6.030;2023-08-31T03:10:33;4.5;;;4.1;;
15498;SDS011;7851;52.260;6.030;2023-08-31T03:11:33;4.6;;;4.2;;
15498;SDS011;7851;52.260;6.030;2023-08-31T03:12:34;4.4;;;4.1;;
15498;SDS011;7851;52.260;6.030;2023-08-31T03:13:33;4.2;;;4;;
15498;SDS011;7851;52.260;6.030;2023-08-31T03:14:33;3.6;;;3.4;;
15498;SDS011;7851;52.260;6.030;2023-08-31T03:15:34;4.4;;;4;;
15498;SDS011;7851;52.260;6.030;2023-08-31T03:16:33;4.1;;;3.8;;
15498;SDS011;7851;52.260;6.030;2023-08-31T03:17:33;3.9;;;3.6;;
15498;SDS011;7851;52.260;6.030;2023-08-31T03:18:33;4.3;;;4;;
15498;SDS011;7851;52.260;6.030;2023-08-31T03:19:33;3.2;;;3;;
15498;SDS011;7851;52.260;6.030;2023-08-31T03:20:33;3.8;;;3.5;;
15498;SDS011;7851;52.260;6.030;2023-08-31T03:21:33;4;;;3.7;;
15498;SDS011;7851;52.260;6.030;2023-08-31T03:22:33;3.9;;;3.6;;
15498;SDS011;7851;52.260;6.030;2023-08-31T03:23:33;3.9;;;3.6;;
15498;SDS011;7851;52.260;6.030;2023-08-31T03:24:33;3.1;;;2.9;;
15498;SDS011;7851;52.260;6.030;2023-08-31T03:25:33;4.2;;;3.9;;
15498;SDS011;7851;52.260;6.030;2023-08-31T03:26:33;3.6;;;3.3;;
15498;SDS011;7851;52.260;6.030;2023-08-31T03:27:33;3.4;;;3;;
15498;SDS011;7851;52.260;6.030;2023-08-31T03:28:33;3.2;;;3;;
15498;SDS011;7851;52.260;6.030;2023-08-31T03:29:33;3;;;2.8;;
15498;SDS011;7851;52.260;6.030;2023-08-31T03:30:33;3;;;2.8;;
15498;SDS011;7851;52.260;6.030;2023-08-31T03:31:33;2.9;;;2.7;;
15498;SDS011;7851;52.260;6.030;2023-08-31T03:32:33;2.5;;;2.4;;
15498;SDS011;7851;52.260;6.030;2023-08-31T03:33:33;3.6;;;3.3;;
15498;SDS011;7851;52.260;6.030;2023-08-31T03:34:33;4.8;;;2.9;;
15498;SDS011;7851;52.260;6.030;2023-08-31T03:35:33;3.6;;;3.3;;
15498;SDS011;7851;52.260;6.030;2023-08-31T03:36:33;3.1;;;3;;
15498;SDS011;7851;52.260;6.030;2023-08-31T03:37:33;2.9;;;2.8;;
15498;SDS011;7851;52.260;6.030;2023-08-31T03:38:34;3;;;2.8;;
15498;SDS011;7851;52.260;6.030;2023-08-31T03:39:33;2.6;;;2.5;;
15498;SDS011;7851;52.260;6.030;2023-08-31T03:40:33;3.2;;;3;;
15498;SDS011;7851;52.260;6.030;2023-08-31T03:41:33;3.6;;;2.7;;
15498;SDS011;7851;52.260;6.030;2023-08-31T03:42:34;7;;;3.1;;
15498;SDS011;7851;52.260;6.030;2023-08-31T03:43:33;2.8;;;2.7;;
15498;SDS011;7851;52.260;6.030;2023-08-31T03:44:34;3.4;;;3.2;;
15498;SDS011;7851;52.260;6.030;2023-08-31T03:45:33;3.5;;;3.3;;
15498;SDS011;7851;52.260;6.030;2023-08-31T03:46:33;3.1;;;2.9;;
15498;SDS011;7851;52.260;6.030;2023-08-31T03:47:33;3.7;;;3.4;;
15498;SDS011;7851;52.260;6.030;2023-08-31T03:48:33;3.4;;;2.9;;
15498;SDS011;7851;52.260;6.030;2023-08-31T03:49:33;4;;;3.6;;
15498;SDS011;7851;52.260;6.030;2023-08-31T03:50:33;3.4;;;3.2;;
15498;SDS011;7851;52.260;6.030;2023-08-31T03:51:33;5.3;;;4;;
15498;SDS011;7851;52.260;6.030;2023-08-31T03:52:33;3.9;;;3.6;;
15498;SDS011;7851;52.260;6.030;2023-08-31T03:53:33;3.7;;;3.4;;
15498;SDS011;7851;52.260;6.030;2023-08-31T03:54:33;3.5;;;3.3;;
15498;SDS011;7851;52.260;6.030;2023-08-31T03:55:35;3.9;;;3.6;;
15498;SDS011;7851;52.260;6.030;2023-08-31T03:56:33;3.6;;;3.2;;
15498;SDS011;7851;52.260;6.030;2023-08-31T03:57:33;4;;;3.6;;
15498;SDS011;7851;52.260;6.030;2023-08-31T03:58:33;3.8;;;3.5;;
15498;SDS011;7851;52.260;6.030;2023-08-31T03:59:33;3.6;;;3.4;;
15498;SDS011;7851;52.260;6.030;2023-08-31T04:00:33;4.9;;;3.9;;
15498;SDS011;7851;52.260;6.030;2023-08-31T04:01:33;5.9;;;3.5;;
15498;SDS011;7851;52.260;6.030;2023-08-31T04:02:34;5.1;;;3.9;;
15498;SDS011;7851;52.260;6.030;2023-08-31T04:03:33;4.2;;;3.6;;
15498;SDS011;7851;52.260;6.030;2023-08-31T04:04:33;6.6;;;3.7;;
15498;SDS011;7851;52.260;6.030;2023-08-31T04:05:33;4.3;;;3.8;;
15498;SDS011;7851;52.260;6.030;2023-08-31T04:06:33;5.3;;;4.2;;
15498;SDS011;7851;52.260;6.030;2023-08-31T04:07:34;5;;;4.6;;
15498;SDS011;7851;52.260;6.030;2023-08-31T04:08:33;4.9;;;4.5;;
15498;SDS011;7851;52.260;6.030;2023-08-31T04:09:33;5;;;4.6;;
15498;SDS011;7851;52.260;6.030;2023-08-31T04:10:33;4.4;;;4.1;;
15498;SDS011;7851;52.260;6.030;2023-08-31T04:11:33;4.6;;;4.2;;
15498;SDS011;7851;52.260;6.030;2023-08-31T04:12:33;5.7;;;5.3;;
15498;SDS011;7851;52.260;6.030;2023-08-31T04:13:33;6.7;;;4.3;;
15498;SDS011;7851;52.260;6.030;2023-08-31T04:14:33;5.3;;;4.9;;
15498;SDS011;7851;52.260;6.030;2023-08-31T04:15:33;5.7;;;5.2;;
15498;SDS011;7851;52.260;6.030;2023-08-31T04:16:33;4.8;;;4.5;;
15498;SDS011;7851;52.260;6.030;2023-08-31T04:17:33;5.3;;;4.9;;
15498;SDS011;7851;52.260;6.030;2023-08-31T04:18:33;7.9;;;5.3;;
15498;SDS011;7851;52.260;6.030;2023-08-31T04:19:33;5.8;;;5.4;;
15498;SDS011;7851;52.260;6.030;2023-08-31T04:20:33;4.7;;;4.3;;
15498;SDS011;7851;52.260;6.030;2023-08-31T04:21:33;5.5;;;4.6;;
15498;SDS011;7851;52.260;6.030;2023-08-31T04:22:33;6.8;;;5.5;;
15498;SDS011;7851;52.260;6.030;2023-08-31T04:23:33;6.1;;;5.5;;
15498;SDS011;7851;52.260;6.030;2023-08-31T04:24:33;5.7;;;5.1;;
15498;SDS011;7851;52.260;6.030;2023-08-31T04:25:33;6.7;;;5.1;;
15498;SDS011;7851;52.260;6.030;2023-08-31T04:26:33;7.5;;;5.5;;
15498;SDS011;7851;52.260;6.030;2023-08-31T04:27:33;6.6;;;5.7;;
15498;SDS011;7851;52.260;6.030;2023-08-31T04:28:33;5.1;;;4.7;;
15498;SDS011;7851;52.260;6.030;2023-08-31T04:29:33;5.1;;;4.5;;
15498;SDS011;7851;52.260;6.030;2023-08-31T04:30:33;5.3;;;4.9;;
15498;SDS011;7851;52.260;6.030;2023-08-31T04:31:33;5;;;4.6;;
15498;SDS011;7851;52.260;6.030;2023-08-31T04:32:33;5.3;;;4.8;;
15498;SDS011;7851;52.260;6.030;2023-08-31T04:33:33;5.2;;;4.7;;
15498;SDS011;7851;52.260;6.030;2023-08-31T04:34:33;5.6;;;4.8;;
15498;SDS011;7851;52.260;6.030;2023-08-31T04:35:33;5.1;;;4.7;;
15498;SDS011;7851;52.260;6.030;2023-08-31T04:36:33;5.4;;;4.9;;
15498;SDS011;7851;52.260;6.030;2023-08-31T04:37:33;4.7;;;4.4;;
15498;SDS011;7851;52.260;6.030;2023-08-31T04:38:34;6.6;;;5.6;;
15498;SDS011;7851;52.260;6.030;2023-08-31T04:39:33;6.1;;;5.5;;
15498;SDS011;7851;52.260;6.030;2023-08-31T04:40:33;5.4;;;4.9;;
15498;SDS011;7851;52.260;6.030;2023-08-31T04:41:33;5.6;;;5.1;;
15498;SDS011;7851;52.260;6.030;2023-08-31T04:42:33;5.9;;;5.3;;
15498;SDS011;7851;52.260;6.030;2023-08-31T04:43:33;4.5;;;4.1;;
15498;SDS011;7851;52.260;6.030;2023-08-31T04:44:33;4.2;;;3.9;;
15498;SDS011;7851;52.260;6.030;2023-08-31T04:45:33;5.1;;;4.6;;
15498;SDS011;7851;52.260;6.030;2023-08-31T04:46:33;5.5;;;5.1;;
15498;SDS011;7851;52.260;6.030;2023-08-31T04:47:33;6.3;;;5.7;;
15498;SDS011;7851;52.260;6.030;2023-08-31T04:48:33;4.7;;;4.3;;
15498;SDS011;7851;52.260;6.030;2023-08-31T04:49:33;5.8;;;5.3;;
15498;SDS011;7851;52.260;6.030;2023-08-31T04:50:33;5.5;;;5;;
15498;SDS011;7851;52.260;6.030;2023-08-31T04:51:34;5.9;;;5.3;;
15498;SDS011;7851;52.260;6.030;2023-08-31T04:52:33;5.1;;;4.8;;
15498;SDS011;7851;52.260;6.030;2023-08-31T04:53:33;5.7;;;5.2;;
15498;SDS011;7851;52.260;6.030;2023-08-31T04:54:33;5.8;;;5.3;;
15498;SDS011;7851;52.260;6.030;2023-08-31T04:55:33;5.4;;;4.9;;
15498;SDS011;7851;52.260;6.030;2023-08-31T04:56:33;5.6;;;5.1;;
15498;SDS011;7851;52.260;6.030;2023-08-31T04:57:34;6.4;;;5.8;;
15498;SDS011;7851;52.260;6.030;2023-08-31T04:58:33;5.3;;;4.8;;
15498;SDS011;7851;52.260;6.030;2023-08-31T04:59:33;5.9;;;5.4;;
15498;SDS011;7851;52.260;6.030;2023-08-31T05:00:33;5.8;;;5.3;;
15498;SDS011;7851;52.260;6.030;2023-08-31T05:01:33;5.2;;;4.8;;
15498;SDS011;7851;52.260;6.030;2023-08-31T05:02:33;5.1;;;4.7;;
15498;SDS011;7851;52.260;6.030;2023-08-31T05:03:33;5.8;;;5.3;;
15498;SDS011;7851;52.260;6.030;2023-08-31T05:04:33;5.3;;;4.4;;
15498;SDS011;7851;52.260;6.030;2023-08-31T05:05:33;5.2;;;4.8;;
15498;SDS011;7851;52.260;6.030;2023-08-31T05:06:33;5.5;;;5;;
15498;SDS011;7851;52.260;6.030;2023-08-31T05:07:33;4.6;;;4.3;;
15498;SDS011;7851;52.260;6.030;2023-08-31T05:08:33;7.2;;;5.3;;
15498;SDS011;7851;52.260;6.030;2023-08-31T05:09:33;4.3;;;4;;
15498;SDS011;7851;52.260;6.030;2023-08-31T05:10:33;4.8;;;4.3;;
15498;SDS011;7851;52.260;6.030;2023-08-31T05:11:33;6.7;;;4.2;;
15498;SDS011;7851;52.260;6.030;2023-08-31T05:12:33;5.5;;;5;;
15498;SDS011;7851;52.260;6.030;2023-08-31T05:13:33;5.8;;;5.3;;
15498;SDS011;7851;52.260;6.030;2023-08-31T05:14:33;6;;;5.4;;
15498;SDS011;7851;52.260;6.030;2023-08-31T05:15:34;5.8;;;5.1;;
15498;SDS011;7851;52.260;6.030;2023-08-31T05:16:33;7.2;;;5.1;;
15498;SDS011;7851;52.260;6.030;2023-08-31T05:17:33;4.9;;;4.5;;
15498;SDS011;7851;52.260;6.030;2023-08-31T05:18:33;5.7;;;5.2;;
15498;SDS011;7851;52.260;6.030;2023-08-31T05:19:33;5.9;;;5.5;;
15498;SDS011;7851;52.260;6.030;2023-08-31T05:20:33;5.2;;;4.8;;
15498;SDS011;7851;52.260;6.030;2023-08-31T05:21:33;5.3;;;4.6;;
15498;SDS011;7851;52.260;6.030;2023-08-31T05:22:34;6.1;;;5.5;;
15498;SDS011;7851;52.260;6.030;2023-08-31T05:23:33;5.5;;;4.5;;
15498;SDS011;7851;52.260;6.030;2023-08-31T05:24:33;5.9;;;5.4;;
15498;SDS011;7851;52.260;6.030;2023-08-31T05:25:33;5.1;;;4.7;;
15498;SDS011;7851;52.260;6.030;2023-08-31T05:26:33;7.4;;;5.2;;
15498;SDS011;7851;52.260;6.030;2023-08-31T05:27:33;5.3;;;4.8;;
15498;SDS011;7851;52.260;6.030;2023-08-31T05:28:33;8.9;;;5.8;;
15498;SDS011;7851;52.260;6.030;2023-08-31T05:29:34;5.2;;;4.7;;
15498;SDS011;7851;52.260;6.030;2023-08-31T05:30:33;6;;;5.4;;
15498;SDS011;7851;52.260;6.030;2023-08-31T05:31:33;6.1;;;5.6;;
15498;SDS011;7851;52.260;6.030;2023-08-31T05:32:33;5.6;;;5.1;;
15498;SDS011;7851;52.260;6.030;2023-08-31T05:33:33;5.4;;;5;;
15498;SDS011;7851;52.260;6.030;2023-08-31T05:34:33;7;;;6.4;;
15498;SDS011;7851;52.260;6.030;2023-08-31T05:35:35;7.5;;;6.7;;
15498;SDS011;7851;52.260;6.030;2023-08-31T05:36:33;7.3;;;6.1;;
15498;SDS011;7851;52.260;6.030;2023-08-31T05:37:33;6.6;;;6;;
15498;SDS011;7851;52.260;6.030;2023-08-31T05:38:34;6.3;;;5.8;;
15498;SDS011;7851;52.260;6.030;2023-08-31T05:39:33;7.9;;;7;;
15498;SDS011;7851;52.260;6.030;2023-08-31T05:40:33;7.6;;;7;;
15498;SDS011;7851;52.260;6.030;2023-08-31T05:41:33;6.6;;;6.1;;
15498;SDS011;7851;52.260;6.030;2023-08-31T05:42:33;6.7;;;6.1;;
15498;SDS011;7851;52.260;6.030;2023-08-31T05:43:33;6.6;;;4.9;;
15498;SDS011;7851;52.260;6.030;2023-08-31T05:44:33;7.1;;;6.4;;
15498;SDS011;7851;52.260;6.030;2023-08-31T05:45:34;11.2;;;6.2;;
15498;SDS011;7851;52.260;6.030;2023-08-31T05:46:33;7.5;;;5.8;;
15498;SDS011;7851;52.260;6.030;2023-08-31T05:47:33;8.5;;;6.4;;
15498;SDS011;7851;52.260;6.030;2023-08-31T05:48:34;6;;;5.4;;
15498;SDS011;7851;52.260;6.030;2023-08-31T05:49:33;9.4;;;8.5;;
15498;SDS011;7851;52.260;6.030;2023-08-31T05:50:34;17.7;;;16.3;;
15498;SDS011;7851;52.260;6.030;2023-08-31T05:51:33;19.2;;;17.8;;
15498;SDS011;7851;52.260;6.030;2023-08-31T05:52:33;18.7;;;17.3;;
15498;SDS011;7851;52.260;6.030;2023-08-31T05:53:33;17.5;;;15.9;;
15498;SDS011;7851;52.260;6.030;2023-08-31T05:54:33;16.4;;;15.2;;
15498;SDS011;7851;52.260;6.030;2023-08-31T05:55:33;14.5;;;13.4;;
15498;SDS011;7851;52.260;6.030;2023-08-31T05:56:33;14.2;;;13;;
15498;SDS011;7851;52.260;6.030;2023-08-31T05:57:33;13.4;;;12.4;;
15498;SDS011;7851;52.260;6.030;2023-08-31T05:58:34;13.4;;;12.4;;
15498;SDS011;7851;52.260;6.030;2023-08-31T05:59:33;13.6;;;12.6;;
15498;SDS011;7851;52.260;6.030;2023-08-31T06:00:34;14;;;12.8;;
15498;SDS011;7851;52.260;6.030;2023-08-31T06:01:34;13.2;;;12.2;;
15498;SDS011;7851;52.260;6.030;2023-08-31T06:02:33;13.7;;;12.7;;
15498;SDS011;7851;52.260;6.030;2023-08-31T06:03:33;14.6;;;13.5;;
15498;SDS011;7851;52.260;6.030;2023-08-31T06:04:33;16.7;;;15.3;;
15498;SDS011;7851;52.260;6.030;2023-08-31T06:05:33;18;;;16.4;;
15498;SDS011;7851;52.260;6.030;2023-08-31T06:06:33;19.7;;;18.5;;
15498;SDS011;7851;52.260;6.030;2023-08-31T06:07:33;24;;;22.4;;
15498;SDS011;7851;52.260;6.030;2023-08-31T06:08:33;23;;;21.3;;
15498;SDS011;7851;52.260;6.030;2023-08-31T06:09:33;24.7;;;23;;
15498;SDS011;7851;52.260;6.030;2023-08-31T06:10:33;24.6;;;22.7;;
15498;SDS011;7851;52.260;6.030;2023-08-31T06:11:33;24.6;;;23.1;;
15498;SDS011;7851;52.260;6.030;2023-08-31T06:12:33;25.4;;;23.7;;
15498;SDS011;7851;52.260;6.030;2023-08-31T06:13:33;25.1;;;23.5;;
15498;SDS011;7851;52.260;6.030;2023-08-31T06:14:34;26;;;24.4;;
15498;SDS011;7851;52.260;6.030;2023-08-31T06:15:33;22.5;;;21.1;;
15498;SDS011;7851;52.260;6.030;2023-08-31T06:16:33;24.4;;;22.7;;
15498;SDS011;7851;52.260;6.030;2023-08-31T06:17:33;23.7;;;22.1;;
15498;SDS011;7851;52.260;6.030;2023-08-31T06:18:33;24.7;;;23.1;;
15498;SDS011;7851;52.260;6.030;2023-08-31T06:19:33;23.9;;;22.3;;
15498;SDS011;7851;52.260;6.030;2023-08-31T06:20:33;25;;;23.4;;